sensor_id;sensor_type;location;lat;lon;timestamp;temperature;humidity
46139;DHT22;32398;49.112;8.598;2022-07-12T00:00:39;21.80;57.80
46139;DHT22;32398;49.112;8.598;2022-07-12T00:03:05;21.80;58.00
46139;DHT22;32398;49.112;8.598;2022-07-12T00:05:32;21.80;58.20
46139;DHT22;32398;49.112;8.598;2022-07-12T00:08:00;21.70;58.30
46139;DHT22;32398;49.112;8.598;2022-07-12T00:10:26;21.70;58.30
46139;DHT22;32398;49.112;8.598;2022-07-12T00:12:53;21.70;58.40
46139;DHT22;32398;49.112;8.598;2022-07-12T00:15:19;21.70;58.50
46139;DHT22;32398;49.112;8.598;2022-07-12T00:17:46;21.60;58.50
46139;DHT22;32398;49.112;8.598;2022-07-12T00:20:12;21.60;58.60
46139;DHT22;32398;49.112;8.598;2022-07-12T00:22:39;21.60;58.70
46139;DHT22;32398;49.112;8.598;2022-07-12T00:25:08;21.60;58.80
46139;DHT22;32398;49.112;8.598;2022-07-12T00:27:34;21.50;58.70
46139;DHT22;32398;49.112;8.598;2022-07-12T00:30:01;21.50;58.80
46139;DHT22;32398;49.112;8.598;2022-07-12T00:32:27;21.40;59.00
46139;DHT22;32398;49.112;8.598;2022-07-12T00:34:54;21.40;59.00
46139;DHT22;32398;49.112;8.598;2022-07-12T00:37:20;21.40;59.00
46139;DHT22;32398;49.112;8.598;2022-07-12T00:39:47;21.30;59.00
46139;DHT22;32398;49.112;8.598;2022-07-12T00:42:15;21.30;59.10
46139;DHT22;32398;49.112;8.598;2022-07-12T00:44:41;21.30;59.30
46139;DHT22;32398;49.112;8.598;2022-07-12T00:47:22;21.30;59.40
46139;DHT22;32398;49.112;8.598;2022-07-12T00:49:51;21.20;59.40
46139;DHT22;32398;49.112;8.598;2022-07-12T00:52:18;21.20;59.50
46139;DHT22;32398;49.112;8.598;2022-07-12T00:54:45;21.20;59.60
46139;DHT22;32398;49.112;8.598;2022-07-12T00:57:12;21.20;59.60
46139;DHT22;32398;49.112;8.598;2022-07-12T00:59:39;21.10;59.70
46139;DHT22;32398;49.112;8.598;2022-07-12T01:02:06;21.10;59.60
46139;DHT22;32398;49.112;8.598;2022-07-12T01:04:33;21.10;59.70
46139;DHT22;32398;49.112;8.598;2022-07-12T01:06:59;21.10;59.80
46139;DHT22;32398;49.112;8.598;2022-07-12T01:09:26;21.10;59.90
46139;DHT22;32398;49.112;8.598;2022-07-12T01:11:53;21.10;59.90
46139;DHT22;32398;49.112;8.598;2022-07-12T01:14:19;21.00;60.10
46139;DHT22;32398;49.112;8.598;2022-07-12T01:16:47;21.00;60.20
46139;DHT22;32398;49.112;8.598;2022-07-12T01:19:14;21.00;60.30
46139;DHT22;32398;49.112;8.598;2022-07-12T01:21:46;21.00;60.30
46139;DHT22;32398;49.112;8.598;2022-07-12T01:24:15;21.00;60.40
46139;DHT22;32398;49.112;8.598;2022-07-12T01:26:42;20.90;60.50
46139;DHT22;32398;49.112;8.598;2022-07-12T01:29:08;20.90;60.60
46139;DHT22;32398;49.112;8.598;2022-07-12T01:31:35;20.90;60.70
46139;DHT22;32398;49.112;8.598;2022-07-12T01:34:02;20.90;60.80
46139;DHT22;32398;49.112;8.598;2022-07-12T01:36:29;20.80;60.80
46139;DHT22;32398;49.112;8.598;2022-07-12T01:38:56;20.80;60.90
46139;DHT22;32398;49.112;8.598;2022-07-12T01:41:24;20.80;61.00
46139;DHT22;32398;49.112;8.598;2022-07-12T01:43:50;20.80;61.90
46139;DHT22;32398;49.112;8.598;2022-07-12T01:46:17;20.80;61.30
46139;DHT22;32398;49.112;8.598;2022-07-12T01:48:44;20.70;61.20
46139;DHT22;32398;49.112;8.598;2022-07-12T01:51:10;20.70;61.30
46139;DHT22;32398;49.112;8.598;2022-07-12T01:53:37;20.70;61.70
46139;DHT22;32398;49.112;8.598;2022-07-12T01:56:03;20.70;61.40
46139;DHT22;32398;49.112;8.598;2022-07-12T01:58:31;20.60;61.40
46139;DHT22;32398;49.112;8.598;2022-07-12T02:00:58;20.60;61.50
46139;DHT22;32398;49.112;8.598;2022-07-12T02:03:24;20.70;61.70
46139;DHT22;32398;49.112;8.598;2022-07-12T02:05:51;20.60;61.60
46139;DHT22;32398;49.112;8.598;2022-07-12T02:08:18;20.60;61.60
46139;DHT22;32398;49.112;8.598;2022-07-12T02:10:44;20.60;61.80
46139;DHT22;32398;49.112;8.598;2022-07-12T02:13:11;20.60;61.80
46139;DHT22;32398;49.112;8.598;2022-07-12T02:15:38;20.50;61.90
46139;DHT22;32398;49.112;8.598;2022-07-12T02:18:05;20.50;61.90
46139;DHT22;32398;49.112;8.598;2022-07-12T02:20:32;20.50;61.90
46139;DHT22;32398;49.112;8.598;2022-07-12T02:22:58;20.50;61.90
46139;DHT22;32398;49.112;8.598;2022-07-12T02:25:25;20.40;62.00
46139;DHT22;32398;49.112;8.598;2022-07-12T02:27:51;20.40;62.10
46139;DHT22;32398;49.112;8.598;2022-07-12T02:30:18;20.40;62.20
46139;DHT22;32398;49.112;8.598;2022-07-12T02:32:46;20.40;62.20
46139;DHT22;32398;49.112;8.598;2022-07-12T02:35:12;20.40;62.30
46139;DHT22;32398;49.112;8.598;2022-07-12T02:37:39;20.30;62.30
46139;DHT22;32398;49.112;8.598;2022-07-12T02:40:06;20.30;62.50
46139;DHT22;32398;49.112;8.598;2022-07-12T02:42:50;20.30;62.50
46139;DHT22;32398;49.112;8.598;2022-07-12T02:45:17;20.30;62.50
46139;DHT22;32398;49.112;8.598;2022-07-12T02:47:43;20.30;62.60
46139;DHT22;32398;49.112;8.598;2022-07-12T02:50:11;20.20;62.60
46139;DHT22;32398;49.112;8.598;2022-07-12T02:52:38;20.30;62.90
46139;DHT22;32398;49.112;8.598;2022-07-12T02:55:04;20.20;62.80
46139;DHT22;32398;49.112;8.598;2022-07-12T02:57:31;20.20;62.90
46139;DHT22;32398;49.112;8.598;2022-07-12T02:59:57;20.20;62.90
46139;DHT22;32398;49.112;8.598;2022-07-12T03:02:24;20.10;62.80
46139;DHT22;32398;49.112;8.598;2022-07-12T03:04:51;20.10;62.80
46139;DHT22;32398;49.112;8.598;2022-07-12T03:07:19;20.10;62.90
46139;DHT22;32398;49.112;8.598;2022-07-12T03:09:45;20.10;63.70
46139;DHT22;32398;49.112;8.598;2022-07-12T03:12:12;20.00;62.90
46139;DHT22;32398;49.112;8.598;2022-07-12T03:14:38;20.00;63.00
46139;DHT22;32398;49.112;8.598;2022-07-12T03:17:05;20.00;63.00
46139;DHT22;32398;49.112;8.598;2022-07-12T03:19:31;19.90;63.00
46139;DHT22;32398;49.112;8.598;2022-07-12T03:21:58;20.00;63.20
46139;DHT22;32398;49.112;8.598;2022-07-12T03:24:26;19.90;63.10
46139;DHT22;32398;49.112;8.598;2022-07-12T03:26:53;19.90;63.20
46139;DHT22;32398;49.112;8.598;2022-07-12T03:29:19;19.90;63.20
46139;DHT22;32398;49.112;8.598;2022-07-12T03:31:46;19.90;63.20
46139;DHT22;32398;49.112;8.598;2022-07-12T03:34:13;19.90;63.20
46139;DHT22;32398;49.112;8.598;2022-07-12T03:36:39;19.80;63.20
46139;DHT22;32398;49.112;8.598;2022-07-12T03:39:06;19.80;63.40
46139;DHT22;32398;49.112;8.598;2022-07-12T03:41:34;19.80;63.40
46139;DHT22;32398;49.112;8.598;2022-07-12T03:44:00;19.70;63.30
46139;DHT22;32398;49.112;8.598;2022-07-12T03:46:27;19.70;63.40
46139;DHT22;32398;49.112;8.598;2022-07-12T03:48:53;19.70;63.40
46139;DHT22;32398;49.112;8.598;2022-07-12T03:51:20;19.70;63.70
46139;DHT22;32398;49.112;8.598;2022-07-12T03:53:46;19.70;63.70
46139;DHT22;32398;49.112;8.598;2022-07-12T03:56:13;19.70;63.70
46139;DHT22;32398;49.112;8.598;2022-07-12T03:59:01;19.60;63.70
46139;DHT22;32398;49.112;8.598;2022-07-12T04:01:27;19.60;63.70
46139;DHT22;32398;49.112;8.598;2022-07-12T04:03:54;19.60;63.90
46139;DHT22;32398;49.112;8.598;2022-07-12T04:06:21;19.50;63.90
46139;DHT22;32398;49.112;8.598;2022-07-12T04:08:47;19.60;64.00
46139;DHT22;32398;49.112;8.598;2022-07-12T04:11:14;19.60;64.00
46139;DHT22;32398;49.112;8.598;2022-07-12T04:13:40;19.50;64.10
46139;DHT22;32398;49.112;8.598;2022-07-12T04:16:08;19.50;64.20
46139;DHT22;32398;49.112;8.598;2022-07-12T04:18:35;19.50;64.20
46139;DHT22;32398;49.112;8.598;2022-07-12T04:21:01;19.50;64.40
46139;DHT22;32398;49.112;8.598;2022-07-12T04:23:28;19.50;64.40
46139;DHT22;32398;49.112;8.598;2022-07-12T04:25:54;19.40;64.40
46139;DHT22;32398;49.112;8.598;2022-07-12T04:28:21;19.40;64.40
46139;DHT22;32398;49.112;8.598;2022-07-12T04:30:48;19.40;64.50
46139;DHT22;32398;49.112;8.598;2022-07-12T04:33:16;19.40;64.60
46139;DHT22;32398;49.112;8.598;2022-07-12T04:35:42;19.40;64.70
46139;DHT22;32398;49.112;8.598;2022-07-12T04:38:09;19.40;64.90
46139;DHT22;32398;49.112;8.598;2022-07-12T04:40:35;19.30;64.90
46139;DHT22;32398;49.112;8.598;2022-07-12T04:43:02;19.30;64.90
46139;DHT22;32398;49.112;8.598;2022-07-12T04:45:28;19.30;65.00
46139;DHT22;32398;49.112;8.598;2022-07-12T04:47:55;19.20;64.90
46139;DHT22;32398;49.112;8.598;2022-07-12T04:50:23;19.20;65.00
46139;DHT22;32398;49.112;8.598;2022-07-12T04:52:49;19.20;65.00
46139;DHT22;32398;49.112;8.598;2022-07-12T04:55:16;19.20;65.00
46139;DHT22;32398;49.112;8.598;2022-07-12T04:57:42;19.20;65.10
46139;DHT22;32398;49.112;8.598;2022-07-12T05:00:09;19.20;65.20
46139;DHT22;32398;49.112;8.598;2022-07-12T05:02:36;19.10;65.20
46139;DHT22;32398;49.112;8.598;2022-07-12T05:05:03;19.20;65.60
46139;DHT22;32398;49.112;8.598;2022-07-12T05:07:31;19.10;65.40
46139;DHT22;32398;49.112;8.598;2022-07-12T05:09:58;19.10;65.40
46139;DHT22;32398;49.112;8.598;2022-07-12T05:12:25;19.10;65.40
46139;DHT22;32398;49.112;8.598;2022-07-12T05:14:51;19.10;65.50
46139;DHT22;32398;49.112;8.598;2022-07-12T05:17:18;19.10;65.60
46139;DHT22;32398;49.112;8.598;2022-07-12T05:19:44;19.10;65.70
46139;DHT22;32398;49.112;8.598;2022-07-12T05:22:11;19.10;65.80
46139;DHT22;32398;49.112;8.598;2022-07-12T05:24:38;19.00;65.70
46139;DHT22;32398;49.112;8.598;2022-07-12T05:27:05;19.00;65.70
46139;DHT22;32398;49.112;8.598;2022-07-12T05:29:32;19.00;65.70
46139;DHT22;32398;49.112;8.598;2022-07-12T05:31:58;19.00;65.80
46139;DHT22;32398;49.112;8.598;2022-07-12T05:34:26;19.00;65.80
46139;DHT22;32398;49.112;8.598;2022-07-12T05:36:53;19.00;65.90
46139;DHT22;32398;49.112;8.598;2022-07-12T05:39:20;19.00;65.90
46139;DHT22;32398;49.112;8.598;2022-07-12T05:41:48;19.00;65.90
46139;DHT22;32398;49.112;8.598;2022-07-12T05:44:14;19.00;65.90
46139;DHT22;32398;49.112;8.598;2022-07-12T05:46:42;19.00;65.90
46139;DHT22;32398;49.112;8.598;2022-07-12T05:49:09;19.00;65.90
46139;DHT22;32398;49.112;8.598;2022-07-12T05:51:35;19.00;65.90
46139;DHT22;32398;49.112;8.598;2022-07-12T05:54:28;19.00;65.90
46139;DHT22;32398;49.112;8.598;2022-07-12T05:56:55;19.00;65.90
46139;DHT22;32398;49.112;8.598;2022-07-12T05:59:22;19.00;65.90
46139;DHT22;32398;49.112;8.598;2022-07-12T06:01:49;19.00;65.90
46139;DHT22;32398;49.112;8.598;2022-07-12T06:04:15;19.00;65.80
46139;DHT22;32398;49.112;8.598;2022-07-12T06:06:42;19.10;65.80
46139;DHT22;32398;49.112;8.598;2022-07-12T06:09:08;19.10;65.80
46139;DHT22;32398;49.112;8.598;2022-07-12T06:11:35;19.10;65.80
46139;DHT22;32398;49.112;8.598;2022-07-12T06:14:02;19.10;65.80
46139;DHT22;32398;49.112;8.598;2022-07-12T06:16:29;19.00;65.70
46139;DHT22;32398;49.112;8.598;2022-07-12T06:18:56;19.10;65.80
46139;DHT22;32398;49.112;8.598;2022-07-12T06:21:23;19.10;65.80
46139;DHT22;32398;49.112;8.598;2022-07-12T06:23:49;19.10;65.70
46139;DHT22;32398;49.112;8.598;2022-07-12T06:26:16;19.10;65.70
46139;DHT22;32398;49.112;8.598;2022-07-12T06:28:42;19.20;65.70
46139;DHT22;32398;49.112;8.598;2022-07-12T06:31:10;19.20;65.80
46139;DHT22;32398;49.112;8.598;2022-07-12T06:33:37;19.20;65.70
46139;DHT22;32398;49.112;8.598;2022-07-12T06:36:03;19.20;65.70
46139;DHT22;32398;49.112;8.598;2022-07-12T06:38:30;19.20;65.70
46139;DHT22;32398;49.112;8.598;2022-07-12T06:40:56;19.20;65.80
46139;DHT22;32398;49.112;8.598;2022-07-12T06:43:23;19.30;65.80
46139;DHT22;32398;49.112;8.598;2022-07-12T06:45:50;19.30;65.80
46139;DHT22;32398;49.112;8.598;2022-07-12T06:48:18;19.30;65.90
46139;DHT22;32398;49.112;8.598;2022-07-12T06:50:44;19.30;65.80
46139;DHT22;32398;49.112;8.598;2022-07-12T06:53:11;19.30;66.40
46139;DHT22;32398;49.112;8.598;2022-07-12T06:55:38;19.30;66.00
46139;DHT22;32398;49.112;8.598;2022-07-12T06:58:04;19.30;66.00
46139;DHT22;32398;49.112;8.598;2022-07-12T07:00:31;19.30;65.90
46139;DHT22;32398;49.112;8.598;2022-07-12T07:02:57;19.40;65.80
46139;DHT22;32398;49.112;8.598;2022-07-12T07:05:26;19.40;65.90
46139;DHT22;32398;49.112;8.598;2022-07-12T07:07:52;19.40;65.80
46139;DHT22;32398;49.112;8.598;2022-07-12T07:10:20;19.40;65.60
46139;DHT22;32398;49.112;8.598;2022-07-12T07:12:46;19.40;65.70
46139;DHT22;32398;49.112;8.598;2022-07-12T07:15:13;19.40;65.60
46139;DHT22;32398;49.112;8.598;2022-07-12T07:17:41;19.40;65.50
46139;DHT22;32398;49.112;8.598;2022-07-12T07:20:08;19.40;65.60
46139;DHT22;32398;49.112;8.598;2022-07-12T07:22:36;19.50;65.70
46139;DHT22;32398;49.112;8.598;2022-07-12T07:25:03;19.60;65.70
46139;DHT22;32398;49.112;8.598;2022-07-12T07:27:30;19.60;65.60
46139;DHT22;32398;49.112;8.598;2022-07-12T07:29:56;19.60;65.50
46139;DHT22;32398;49.112;8.598;2022-07-12T07:32:40;19.60;65.50
46139;DHT22;32398;49.112;8.598;2022-07-12T07:35:07;19.60;65.50
46139;DHT22;32398;49.112;8.598;2022-07-12T07:37:34;19.60;65.40
46139;DHT22;32398;49.112;8.598;2022-07-12T07:40:02;19.70;65.40
46139;DHT22;32398;49.112;8.598;2022-07-12T07:42:29;19.70;65.40
46139;DHT22;32398;49.112;8.598;2022-07-12T07:44:56;19.70;65.30
46139;DHT22;32398;49.112;8.598;2022-07-12T07:47:22;19.70;65.20
46139;DHT22;32398;49.112;8.598;2022-07-12T07:49:49;19.80;65.10
46139;DHT22;32398;49.112;8.598;2022-07-12T07:52:15;19.80;64.90
46139;DHT22;32398;49.112;8.598;2022-07-12T07:54:42;19.80;64.80
46139;DHT22;32398;49.112;8.598;2022-07-12T07:57:10;19.80;64.60
46139;DHT22;32398;49.112;8.598;2022-07-12T07:59:36;19.90;64.50
46139;DHT22;32398;49.112;8.598;2022-07-12T08:02:03;19.90;64.40
46139;DHT22;32398;49.112;8.598;2022-07-12T08:04:30;19.90;64.30
46139;DHT22;32398;49.112;8.598;2022-07-12T08:06:56;19.90;64.10
46139;DHT22;32398;49.112;8.598;2022-07-12T08:09:23;19.90;64.20
46139;DHT22;32398;49.112;8.598;2022-07-12T08:11:50;20.00;64.00
46139;DHT22;32398;49.112;8.598;2022-07-12T08:14:18;20.00;63.60
46139;DHT22;32398;49.112;8.598;2022-07-12T08:16:45;20.10;63.60
46139;DHT22;32398;49.112;8.598;2022-07-12T08:19:11;20.10;63.60
46139;DHT22;32398;49.112;8.598;2022-07-12T08:21:38;20.10;63.60
46139;DHT22;32398;49.112;8.598;2022-07-12T08:24:05;20.10;63.40
46139;DHT22;32398;49.112;8.598;2022-07-12T08:26:32;20.20;63.20
46139;DHT22;32398;49.112;8.598;2022-07-12T08:28:58;20.20;62.90
46139;DHT22;32398;49.112;8.598;2022-07-12T08:31:26;20.20;62.80
46139;DHT22;32398;49.112;8.598;2022-07-12T08:33:53;20.20;62.80
46139;DHT22;32398;49.112;8.598;2022-07-12T08:36:20;20.30;62.70
46139;DHT22;32398;49.112;8.598;2022-07-12T08:38:46;20.40;62.60
46139;DHT22;32398;49.112;8.598;2022-07-12T08:41:13;20.40;62.40
46139;DHT22;32398;49.112;8.598;2022-07-12T08:43:40;20.40;62.30
46139;DHT22;32398;49.112;8.598;2022-07-12T08:46:07;20.50;62.30
46139;DHT22;32398;49.112;8.598;2022-07-12T08:48:36;20.50;62.10
46139;DHT22;32398;49.112;8.598;2022-07-12T08:51:04;20.50;62.00
46139;DHT22;32398;49.112;8.598;2022-07-12T08:53:31;20.50;62.60
46139;DHT22;32398;49.112;8.598;2022-07-12T08:55:57;20.60;61.70
46139;DHT22;32398;49.112;8.598;2022-07-12T08:58:25;20.60;61.60
46139;DHT22;32398;49.112;8.598;2022-07-12T09:00:51;20.60;61.30
46139;DHT22;32398;49.112;8.598;2022-07-12T09:03:18;20.70;61.20
46139;DHT22;32398;49.112;8.598;2022-07-12T09:05:50;20.70;61.00
46139;DHT22;32398;49.112;8.598;2022-07-12T09:08:17;20.80;61.00
46139;DHT22;32398;49.112;8.598;2022-07-12T09:10:54;20.80;60.80
46139;DHT22;32398;49.112;8.598;2022-07-12T09:13:32;20.90;60.80
46139;DHT22;32398;49.112;8.598;2022-07-12T09:16:14;20.90;60.50
46139;DHT22;32398;49.112;8.598;2022-07-12T09:18:41;20.90;60.30
46139;DHT22;32398;49.112;8.598;2022-07-12T09:21:09;21.00;60.20
46139;DHT22;32398;49.112;8.598;2022-07-12T09:23:36;21.00;60.10
46139;DHT22;32398;49.112;8.598;2022-07-12T09:26:07;21.10;59.90
46139;DHT22;32398;49.112;8.598;2022-07-12T09:28:34;21.10;59.40
46139;DHT22;32398;49.112;8.598;2022-07-12T09:31:00;21.20;59.30
46139;DHT22;32398;49.112;8.598;2022-07-12T09:33:27;21.20;59.20
46139;DHT22;32398;49.112;8.598;2022-07-12T09:36:13;21.20;59.00
46139;DHT22;32398;49.112;8.598;2022-07-12T09:38:40;21.30;58.90
46139;DHT22;32398;49.112;8.598;2022-07-12T09:41:16;21.30;58.70
46139;DHT22;32398;49.112;8.598;2022-07-12T09:43:43;21.40;58.30
46139;DHT22;32398;49.112;8.598;2022-07-12T09:46:10;21.50;58.90
46139;DHT22;32398;49.112;8.598;2022-07-12T09:48:37;21.50;58.20
46139;DHT22;32398;49.112;8.598;2022-07-12T09:51:03;21.60;58.60
46139;DHT22;32398;49.112;8.598;2022-07-12T09:53:32;21.70;58.00
46139;DHT22;32398;49.112;8.598;2022-07-12T09:55:59;21.70;57.80
46139;DHT22;32398;49.112;8.598;2022-07-12T09:58:30;21.80;57.70
46139;DHT22;32398;49.112;8.598;2022-07-12T10:00:58;21.90;57.40
46139;DHT22;32398;49.112;8.598;2022-07-12T10:03:25;22.00;57.20
46139;DHT22;32398;49.112;8.598;2022-07-12T10:05:55;22.00;57.00
46139;DHT22;32398;49.112;8.598;2022-07-12T10:08:21;22.10;56.90
46139;DHT22;32398;49.112;8.598;2022-07-12T10:10:49;22.20;56.90
46139;DHT22;32398;49.112;8.598;2022-07-12T10:13:17;22.20;56.80
46139;DHT22;32398;49.112;8.598;2022-07-12T10:15:45;22.30;56.60
46139;DHT22;32398;49.112;8.598;2022-07-12T10:18:16;22.40;56.40
46139;DHT22;32398;49.112;8.598;2022-07-12T10:20:43;22.40;56.30
46139;DHT22;32398;49.112;8.598;2022-07-12T10:23:29;22.50;56.20
46139;DHT22;32398;49.112;8.598;2022-07-12T10:26:00;22.60;56.00
46139;DHT22;32398;49.112;8.598;2022-07-12T10:31:13;22.70;55.40
46139;DHT22;32398;49.112;8.598;2022-07-12T10:33:39;22.80;55.50
46139;DHT22;32398;49.112;8.598;2022-07-12T10:36:07;22.90;55.40
46139;DHT22;32398;49.112;8.598;2022-07-12T10:38:34;22.90;55.10
46139;DHT22;32398;49.112;8.598;2022-07-12T10:44:03;23.10;54.70
46139;DHT22;32398;49.112;8.598;2022-07-12T10:46:33;23.20;54.60
46139;DHT22;32398;49.112;8.598;2022-07-12T10:54:28;23.40;54.10
46139;DHT22;32398;49.112;8.598;2022-07-12T10:56:55;23.50;54.00
46139;DHT22;32398;49.112;8.598;2022-07-12T10:59:23;23.50;53.60
46139;DHT22;32398;49.112;8.598;2022-07-12T11:01:50;23.60;53.60
46139;DHT22;32398;49.112;8.598;2022-07-12T11:04:18;23.70;53.70
46139;DHT22;32398;49.112;8.598;2022-07-12T11:06:45;23.70;53.70
46139;DHT22;32398;49.112;8.598;2022-07-12T11:09:12;23.80;53.80
46139;DHT22;32398;49.112;8.598;2022-07-12T11:11:40;23.80;53.70
46139;DHT22;32398;49.112;8.598;2022-07-12T11:14:07;24.00;53.30
46139;DHT22;32398;49.112;8.598;2022-07-12T11:16:42;24.00;52.90
46139;DHT22;32398;49.112;8.598;2022-07-12T11:19:09;24.10;53.00
46139;DHT22;32398;49.112;8.598;2022-07-12T11:21:35;24.20;52.60
46139;DHT22;32398;49.112;8.598;2022-07-12T11:24:02;24.20;52.60
46139;DHT22;32398;49.112;8.598;2022-07-12T11:26:40;24.30;52.60
46139;DHT22;32398;49.112;8.598;2022-07-12T11:29:08;24.40;52.70
46139;DHT22;32398;49.112;8.598;2022-07-12T11:31:36;24.50;52.00
46139;DHT22;32398;49.112;8.598;2022-07-12T11:34:03;24.50;52.00
46139;DHT22;32398;49.112;8.598;2022-07-12T11:36:29;24.60;51.80
46139;DHT22;32398;49.112;8.598;2022-07-12T11:38:56;24.70;51.80
46139;DHT22;32398;49.112;8.598;2022-07-12T11:41:23;24.80;51.50
46139;DHT22;32398;49.112;8.598;2022-07-12T11:43:50;24.80;51.30
46139;DHT22;32398;49.112;8.598;2022-07-12T11:46:17;24.90;51.40
46139;DHT22;32398;49.112;8.598;2022-07-12T11:48:44;24.90;50.90
46139;DHT22;32398;49.112;8.598;2022-07-12T11:51:12;25.00;50.90
46139;DHT22;32398;49.112;8.598;2022-07-12T11:53:39;25.10;50.40
46139;DHT22;32398;49.112;8.598;2022-07-12T11:56:07;25.10;50.60
46139;DHT22;32398;49.112;8.598;2022-07-12T11:58:34;25.20;50.60
46139;DHT22;32398;49.112;8.598;2022-07-12T12:01:03;25.30;50.60
46139;DHT22;32398;49.112;8.598;2022-07-12T12:03:41;25.40;50.20
46139;DHT22;32398;49.112;8.598;2022-07-12T12:06:09;25.40;50.20
46139;DHT22;32398;49.112;8.598;2022-07-12T12:08:36;25.50;50.20
46139;DHT22;32398;49.112;8.598;2022-07-12T12:11:03;25.50;50.20
46139;DHT22;32398;49.112;8.598;2022-07-12T12:13:30;25.60;50.20
46139;DHT22;32398;49.112;8.598;2022-07-12T12:15:57;25.70;50.20
46139;DHT22;32398;49.112;8.598;2022-07-12T12:18:27;25.70;50.10
46139;DHT22;32398;49.112;8.598;2022-07-12T12:20:56;25.80;49.00
46139;DHT22;32398;49.112;8.598;2022-07-12T12:23:25;25.80;49.20
46139;DHT22;32398;49.112;8.598;2022-07-12T12:25:52;25.90;49.50
46139;DHT22;32398;49.112;8.598;2022-07-12T12:28:18;26.00;49.30
46139;DHT22;32398;49.112;8.598;2022-07-12T12:30:49;26.00;49.10
46139;DHT22;32398;49.112;8.598;2022-07-12T12:36:10;26.20;49.20
46139;DHT22;32398;49.112;8.598;2022-07-12T12:38:38;26.20;49.00
46139;DHT22;32398;49.112;8.598;2022-07-12T12:41:05;26.30;48.90
46139;DHT22;32398;49.112;8.598;2022-07-12T12:43:31;26.30;48.20
46139;DHT22;32398;49.112;8.598;2022-07-12T12:45:58;26.30;47.50
46139;DHT22;32398;49.112;8.598;2022-07-12T12:48:25;26.40;48.50
46139;DHT22;32398;49.112;8.598;2022-07-12T12:50:52;26.50;48.50
46139;DHT22;32398;49.112;8.598;2022-07-12T12:53:19;26.50;48.00
46139;DHT22;32398;49.112;8.598;2022-07-12T12:55:48;26.60;48.40
46139;DHT22;32398;49.112;8.598;2022-07-12T12:58:15;26.60;48.20
46139;DHT22;32398;49.112;8.598;2022-07-12T13:00:43;26.70;48.20
46139;DHT22;32398;49.112;8.598;2022-07-12T13:03:10;26.70;47.70
46139;DHT22;32398;49.112;8.598;2022-07-12T13:05:37;26.80;47.60
46139;DHT22;32398;49.112;8.598;2022-07-12T13:08:05;26.80;47.50
46139;DHT22;32398;49.112;8.598;2022-07-12T13:10:32;26.90;47.60
46139;DHT22;32398;49.112;8.598;2022-07-12T13:13:00;26.90;48.20
46139;DHT22;32398;49.112;8.598;2022-07-12T13:15:28;27.00;47.60
46139;DHT22;32398;49.112;8.598;2022-07-12T13:17:55;27.00;47.40
46139;DHT22;32398;49.112;8.598;2022-07-12T13:20:22;27.10;47.20
46139;DHT22;32398;49.112;8.598;2022-07-12T13:22:49;27.20;47.50
46139;DHT22;32398;49.112;8.598;2022-07-12T13:25:16;27.20;47.30
46139;DHT22;32398;49.112;8.598;2022-07-12T13:27:43;27.30;47.20
46139;DHT22;32398;49.112;8.598;2022-07-12T13:30:12;27.30;47.20
46139;DHT22;32398;49.112;8.598;2022-07-12T13:32:39;27.40;46.90
46139;DHT22;32398;49.112;8.598;2022-07-12T13:35:06;27.40;46.90
46139;DHT22;32398;49.112;8.598;2022-07-12T13:37:33;27.50;46.60
46139;DHT22;32398;49.112;8.598;2022-07-12T13:40:00;27.60;46.20
46139;DHT22;32398;49.112;8.598;2022-07-12T13:42:42;27.60;46.10
46139;DHT22;32398;49.112;8.598;2022-07-12T13:45:10;27.70;46.40
46139;DHT22;32398;49.112;8.598;2022-07-12T13:47:38;27.70;45.90
46139;DHT22;32398;49.112;8.598;2022-07-12T13:50:05;27.80;45.80
46139;DHT22;32398;49.112;8.598;2022-07-12T13:52:32;27.90;45.20
46139;DHT22;32398;49.112;8.598;2022-07-12T13:54:59;27.90;45.10
46139;DHT22;32398;49.112;8.598;2022-07-12T13:57:25;28.00;45.00
46139;DHT22;32398;49.112;8.598;2022-07-12T13:59:52;28.10;45.30
46139;DHT22;32398;49.112;8.598;2022-07-12T14:02:18;28.10;45.60
46139;DHT22;32398;49.112;8.598;2022-07-12T14:04:46;28.10;45.60
46139;DHT22;32398;49.112;8.598;2022-07-12T14:07:13;28.30;45.80
46139;DHT22;32398;49.112;8.598;2022-07-12T14:09:39;28.30;45.50
46139;DHT22;32398;49.112;8.598;2022-07-12T14:12:06;28.40;45.40
46139;DHT22;32398;49.112;8.598;2022-07-12T14:14:34;28.40;44.70
46139;DHT22;32398;49.112;8.598;2022-07-12T14:17:18;28.50;44.90
46139;DHT22;32398;49.112;8.598;2022-07-12T14:19:46;28.60;45.10
46139;DHT22;32398;49.112;8.598;2022-07-12T14:22:13;28.60;44.80
46139;DHT22;32398;49.112;8.598;2022-07-12T14:24:39;28.70;45.00
46139;DHT22;32398;49.112;8.598;2022-07-12T14:27:06;28.70;44.30
46139;DHT22;32398;49.112;8.598;2022-07-12T14:29:33;28.80;44.80
46139;DHT22;32398;49.112;8.598;2022-07-12T14:31:59;28.90;44.80
46139;DHT22;32398;49.112;8.598;2022-07-12T14:34:26;29.00;44.60
46139;DHT22;32398;49.112;8.598;2022-07-12T14:36:54;29.00;44.10
46139;DHT22;32398;49.112;8.598;2022-07-12T14:39:21;29.10;44.10
46139;DHT22;32398;49.112;8.598;2022-07-12T14:41:47;29.10;43.30
46139;DHT22;32398;49.112;8.598;2022-07-12T14:44:14;29.20;43.40
46139;DHT22;32398;49.112;8.598;2022-07-12T14:46:40;29.30;43.50
46139;DHT22;32398;49.112;8.598;2022-07-12T14:49:07;29.40;43.70
46139;DHT22;32398;49.112;8.598;2022-07-12T14:51:33;29.40;42.90
46139;DHT22;32398;49.112;8.598;2022-07-12T14:54:01;29.50;43.40
46139;DHT22;32398;49.112;8.598;2022-07-12T14:56:28;29.60;43.70
46139;DHT22;32398;49.112;8.598;2022-07-12T14:58:54;29.60;43.10
46139;DHT22;32398;49.112;8.598;2022-07-12T15:01:21;29.70;43.10
46139;DHT22;32398;49.112;8.598;2022-07-12T15:03:48;29.80;43.00
46139;DHT22;32398;49.112;8.598;2022-07-12T15:06:14;29.80;42.80
46139;DHT22;32398;49.112;8.598;2022-07-12T15:08:41;29.90;42.60
46139;DHT22;32398;49.112;8.598;2022-07-12T15:11:09;30.00;42.30
46139;DHT22;32398;49.112;8.598;2022-07-12T15:13:35;30.00;42.40
46139;DHT22;32398;49.112;8.598;2022-07-12T15:16:02;30.10;42.20
46139;DHT22;32398;49.112;8.598;2022-07-12T15:18:28;30.10;42.40
46139;DHT22;32398;49.112;8.598;2022-07-12T15:20:55;30.20;42.10
46139;DHT22;32398;49.112;8.598;2022-07-12T15:23:22;30.20;41.60
46139;DHT22;32398;49.112;8.598;2022-07-12T15:25:48;30.30;40.80
46139;DHT22;32398;49.112;8.598;2022-07-12T15:28:16;30.30;41.40
46139;DHT22;32398;49.112;8.598;2022-07-12T15:30:43;30.40;42.00
46139;DHT22;32398;49.112;8.598;2022-07-12T15:33:10;30.50;41.60
46139;DHT22;32398;49.112;8.598;2022-07-12T15:35:36;30.50;41.30
46139;DHT22;32398;49.112;8.598;2022-07-12T15:38:03;30.50;41.10
46139;DHT22;32398;49.112;8.598;2022-07-12T15:40:29;30.60;40.90
46139;DHT22;32398;49.112;8.598;2022-07-12T15:42:56;30.60;40.90
46139;DHT22;32398;49.112;8.598;2022-07-12T15:45:24;30.70;41.30